createdAt,value
2019-01-28T00:00:30.627Z,84.38
2019-01-28T00:03:03.231Z,84.62
2019-01-28T00:05:34.604Z,84.99
2019-01-28T00:08:05.826Z,85.00
2019-01-28T00:10:37.098Z,85.25
2019-01-28T00:13:08.329Z,85.24
2019-01-28T00:15:40.191Z,85.22
2019-01-28T00:18:14.249Z,85.32
2019-01-28T00:20:45.557Z,85.14
2019-01-28T00:23:17.070Z,85.14
2019-01-28T00:25:48.351Z,85.19
2019-01-28T00:28:19.518Z,85.14
2019-01-28T00:30:52.989Z,85.07
2019-01-28T00:33:24.236Z,85.07
2019-01-28T00:35:55.516Z,85.21
2019-01-28T00:38:27.076Z,85.18
2019-01-28T00:40:58.689Z,85.01
2019-01-28T00:43:29.932Z,85.05
2019-01-28T00:46:01.135Z,84.96
2019-01-28T00:48:34.817Z,84.72
2019-01-28T00:51:06.116Z,84.54
2019-01-28T00:53:37.317Z,84.74
2019-01-28T00:56:08.613Z,84.83
2019-01-28T00:58:40.209Z,84.83
2019-01-28T01:01:11.765Z,84.86
2019-01-28T01:03:46.050Z,84.87
2019-01-28T01:06:17.576Z,84.86
2019-01-28T01:08:48.839Z,85.15
2019-01-28T01:11:20.117Z,85.08
2019-01-28T01:13:51.374Z,85.04
2019-01-28T01:16:23.343Z,85.01
2019-01-28T01:18:57.478Z,85.11
2019-01-28T01:21:29.056Z,84.87
2019-01-28T01:24:00.292Z,84.92
2019-01-28T01:26:31.588Z,84.74
2019-01-28T01:29:02.792Z,84.59
2019-01-28T01:31:34.096Z,84.59
2019-01-28T01:34:05.862Z,84.49
2019-01-28T01:36:37.093Z,84.32
2019-01-28T01:39:10.361Z,84.00
2019-01-28T01:41:41.641Z,83.89
2019-01-28T01:44:13.056Z,83.67
2019-01-28T01:46:44.678Z,83.10
2019-01-28T01:49:16.034Z,82.92
2019-01-28T01:51:47.282Z,82.97
2019-01-28T01:54:18.519Z,83.05
2019-01-28T01:56:49.798Z,82.91
2019-01-28T01:59:21.343Z,83.12
2019-01-28T02:01:52.904Z,83.30
2019-01-28T02:04:24.260Z,83.07
2019-01-28T02:06:55.500Z,83.23
2019-01-28T02:09:26.984Z,83.38
2019-01-28T02:11:58.599Z,83.43
2019-01-28T02:14:30.280Z,83.52
2019-01-28T02:17:01.815Z,83.71
2019-01-28T02:19:34.340Z,84.01
2019-01-28T02:22:05.561Z,83.94
2019-01-28T02:24:38.501Z,84.09
2019-01-28T02:27:09.785Z,84.16
2019-01-28T02:29:41.088Z,83.96
2019-01-28T02:32:13.069Z,83.69
2019-01-28T02:34:44.374Z,83.26
2019-01-28T02:37:15.593Z,83.02
2019-01-28T02:39:47.127Z,83.12
2019-01-28T02:42:18.388Z,82.88
2019-01-28T02:44:52.216Z,82.45
2019-01-28T02:47:24.127Z,82.82
2019-01-28T02:49:55.448Z,82.80
2019-01-28T02:52:26.972Z,82.45
2019-01-28T02:54:58.214Z,82.58
2019-01-28T02:57:29.794Z,82.68
2019-01-28T03:00:01.336Z,82.75
2019-01-28T03:02:35.212Z,82.69
2019-01-28T03:05:06.923Z,82.63
2019-01-28T03:07:38.151Z,82.52
2019-01-28T03:10:14.290Z,82.29
2019-01-28T03:12:45.936Z,82.23
2019-01-28T03:15:18.406Z,82.30
2019-01-28T03:17:49.951Z,82.22
2019-01-28T03:20:21.542Z,82.16
2019-01-28T03:22:52.752Z,82.28
2019-01-28T03:25:23.991Z,81.97
2019-01-28T03:27:55.252Z,81.99
2019-01-28T03:30:27.351Z,81.73
2019-01-28T03:32:58.912Z,81.65
2019-01-28T03:35:30.171Z,81.53
2019-01-28T03:38:01.546Z,81.46
2019-01-28T03:40:32.760Z,81.16
2019-01-28T03:43:07.086Z,81.31
2019-01-28T03:45:38.626Z,81.12
2019-01-28T03:48:09.832Z,81.04
2019-01-28T03:50:41.125Z,81.06
2019-01-28T03:53:14.582Z,80.77
2019-01-28T03:55:45.862Z,80.58
2019-01-28T03:58:19.032Z,80.96
2019-01-28T04:00:51.502Z,81.09
2019-01-28T04:03:23.071Z,81.07
2019-01-28T04:05:54.383Z,80.97
2019-01-28T04:08:28.013Z,80.92
2019-01-28T04:10:59.212Z,80.73
2019-01-28T04:13:31.523Z,80.69
2019-01-28T04:16:02.712Z,80.75
2019-01-28T04:18:34.566Z,81.21
2019-01-28T04:21:05.859Z,81.32
2019-01-28T04:23:37.133Z,81.22
2019-01-28T04:26:08.397Z,81.16
2019-01-28T04:28:39.689Z,81.04
2019-01-28T04:31:10.941Z,81.04
2019-01-28T04:33:42.473Z,81.27
2019-01-28T04:36:13.732Z,81.01
2019-01-28T04:38:45.348Z,81.11
2019-01-28T04:41:17.223Z,81.38
2019-01-28T04:43:48.488Z,81.24
2019-01-28T04:46:23.135Z,81.16
2019-01-28T04:48:54.702Z,81.42
2019-01-28T04:51:25.970Z,81.34
2019-01-28T04:53:57.221Z,81.65
2019-01-28T04:56:28.432Z,81.91
2019-01-28T04:59:00.640Z,82.07
2019-01-28T05:01:31.905Z,81.43
2019-01-28T05:04:03.115Z,81.51
2019-01-28T05:06:34.676Z,80.83
2019-01-28T05:09:09.251Z,80.93
2019-01-28T05:11:40.663Z,81.10
2019-01-28T05:14:11.907Z,81.37
2019-01-28T05:16:43.514Z,81.08
2019-01-28T05:19:14.732Z,81.20
2019-01-28T05:21:45.982Z,80.91
2019-01-28T05:24:17.514Z,80.70
2019-01-28T05:26:48.751Z,80.82
2019-01-28T05:29:20.031Z,80.98
2019-01-28T05:31:54.529Z,80.83
2019-01-28T05:34:25.698Z,81.09
2019-01-28T05:36:57.067Z,80.86
2019-01-28T05:39:28.619Z,80.87
2019-01-28T05:42:00.483Z,80.92
2019-01-28T05:44:32.095Z,81.12
2019-01-28T05:47:03.353Z,80.92
2019-01-28T05:49:34.952Z,80.85
2019-01-28T05:52:06.361Z,80.74
2019-01-28T05:54:40.407Z,80.58
2019-01-28T05:57:11.791Z,80.62
2019-01-28T05:59:44.689Z,80.32
2019-01-28T06:02:18.718Z,80.53
2019-01-28T06:04:50.397Z,80.70
2019-01-28T06:07:21.981Z,80.57
2019-01-28T06:09:53.288Z,80.86
2019-01-28T06:12:27.608Z,81.05
2019-01-28T06:14:59.683Z,80.71
2019-01-28T06:17:38.654Z,80.67
2019-01-28T06:20:04.985Z,80.82
2019-01-28T06:22:36.251Z,80.42
2019-01-28T06:25:08.065Z,80.91
2019-01-28T06:27:39.291Z,80.93
2019-01-28T06:30:18.460Z,81.03
2019-01-28T06:32:49.672Z,81.05
2019-01-28T06:35:24.152Z,81.15
2019-01-28T06:37:55.736Z,81.48
2019-01-28T06:40:30.665Z,81.18
2019-01-28T06:43:01.876Z,81.34
2019-01-28T06:45:33.153Z,82.19
2019-01-28T06:48:05.852Z,82.62
2019-01-28T06:50:37.370Z,82.62
2019-01-28T06:53:10.271Z,82.15
2019-01-28T06:55:41.524Z,82.04
2019-01-28T06:58:12.767Z,82.07
2019-01-28T07:00:44.334Z,81.91
2019-01-28T07:03:16.011Z,81.46
2019-01-28T07:05:47.235Z,81.46
2019-01-28T07:08:18.543Z,81.73
2019-01-28T07:10:49.839Z,81.73
2019-01-28T07:13:21.455Z,81.51
2019-01-28T07:15:53.055Z,81.26
2019-01-28T07:18:25.101Z,80.98
2019-01-28T07:20:57.025Z,80.75
2019-01-28T07:23:28.797Z,80.75
2019-01-28T07:26:01.234Z,80.28
2019-01-28T07:28:32.834Z,80.13
2019-01-28T07:31:06.147Z,80.00
2019-01-28T07:33:37.730Z,78.99
2019-01-28T07:36:08.934Z,78.70
2019-01-28T07:38:40.202Z,78.43
2019-01-28T07:41:13.325Z,78.31
2019-01-28T07:43:45.500Z,77.82
2019-01-28T07:46:17.127Z,77.84
2019-01-28T07:48:58.458Z,77.68
2019-01-28T07:51:34.612Z,77.64
2019-01-28T07:54:07.326Z,77.85
2019-01-28T07:56:38.826Z,77.88
2019-01-28T07:59:13.220Z,77.77
2019-01-28T08:01:46.871Z,77.71
2019-01-28T08:04:18.395Z,77.43
2019-01-28T08:06:59.209Z,77.39
2019-01-28T08:09:22.883Z,77.46
2019-01-28T08:11:54.410Z,76.94
2019-01-28T08:14:26.066Z,76.93
2019-01-28T08:16:57.671Z,76.43
2019-01-28T08:19:28.898Z,76.51
2019-01-28T08:28:51.277Z,76.22
2019-01-28T08:31:23.352Z,75.70
2019-01-28T08:33:55.345Z,75.76
2019-01-28T08:36:26.697Z,76.26
2019-01-28T08:38:58.293Z,76.54
2019-01-28T08:41:30.182Z,76.57
2019-01-28T08:44:01.850Z,76.01
2019-01-28T08:46:33.526Z,76.26
2019-01-28T08:49:05.888Z,76.03
2019-01-28T08:51:37.702Z,76.17
2019-01-28T08:54:09.531Z,76.61
2019-01-28T08:56:42.468Z,76.11
2019-01-28T08:59:14.533Z,76.42
2019-01-28T09:01:45.887Z,75.85
2019-01-28T09:04:17.267Z,75.92
2019-01-28T09:06:48.631Z,76.01
2019-01-28T09:09:20.140Z,76.09
2019-01-28T09:11:51.497Z,74.90
2019-01-28T09:14:22.830Z,74.76
2019-01-28T09:16:54.491Z,75.36
2019-01-28T09:19:25.801Z,75.00
2019-01-28T09:21:57.169Z,75.25
2019-01-28T09:24:28.482Z,75.38
2019-01-28T09:27:00.110Z,74.83
2019-01-28T09:29:31.449Z,74.59
2019-01-28T09:32:03.383Z,75.18
2019-01-28T09:34:34.705Z,75.38
2019-01-28T09:37:08.206Z,74.61
2019-01-28T09:39:39.563Z,74.46
2019-01-28T09:42:10.771Z,73.79
2019-01-28T09:44:42.675Z,73.91
2019-01-28T09:47:17.387Z,73.90
2019-01-28T09:49:49.180Z,73.82
2019-01-28T09:52:20.699Z,73.81
2019-01-28T09:54:52.464Z,74.14
2019-01-28T09:57:24.444Z,74.40
2019-01-28T09:59:56.141Z,74.79
2019-01-28T10:02:27.495Z,74.58
2019-01-28T10:04:59.116Z,74.14
2019-01-28T10:07:30.523Z,73.13
2019-01-28T10:10:01.861Z,72.82
2019-01-28T10:12:34.683Z,73.62
2019-01-28T10:15:08.073Z,73.52
2019-01-28T10:17:40.270Z,73.90
2019-01-28T10:20:20.662Z,73.36
2019-01-28T10:22:53.431Z,73.08
2019-01-28T10:25:24.839Z,73.75
2019-01-28T10:27:56.795Z,73.49
2019-01-28T10:30:34.257Z,72.40
2019-01-28T10:33:06.642Z,72.78
2019-01-28T10:35:38.788Z,72.62
2019-01-28T10:38:10.613Z,72.04
2019-01-28T10:40:43.104Z,72.07
2019-01-28T10:43:14.638Z,72.77
2019-01-28T10:45:47.723Z,72.45
2019-01-28T10:48:19.593Z,71.74
2019-01-28T10:50:50.997Z,71.41
2019-01-28T10:53:22.712Z,70.93
2019-01-28T10:55:54.037Z,71.79
2019-01-28T10:58:25.326Z,72.00
2019-01-28T11:00:57.011Z,71.77
2019-01-28T11:03:28.991Z,71.80
2019-01-28T11:06:00.998Z,72.07
2019-01-28T11:08:32.383Z,71.44
2019-01-28T11:11:03.767Z,71.43
2019-01-28T11:13:35.074Z,72.31
2019-01-28T11:16:07.818Z,71.70
2019-01-28T11:18:39.088Z,72.03
2019-01-28T11:21:10.740Z,71.67
2019-01-28T11:23:42.250Z,72.30
2019-01-28T11:26:13.930Z,71.99
2019-01-28T11:28:45.826Z,72.02
2019-01-28T11:31:17.287Z,71.87
2019-01-28T11:33:48.617Z,72.69
2019-01-28T11:36:20.072Z,71.94
2019-01-28T11:38:51.811Z,71.68
2019-01-28T11:41:23.102Z,72.17
2019-01-28T11:43:54.869Z,72.12
2019-01-28T11:46:26.250Z,72.20
2019-01-28T11:49:05.556Z,73.06
2019-01-28T11:51:31.164Z,72.31
2019-01-28T11:54:02.675Z,73.34
2019-01-28T11:56:34.334Z,72.72
2019-01-28T11:59:06.027Z,73.09
2019-01-28T12:01:37.928Z,73.29
2019-01-28T12:04:10.083Z,74.01
2019-01-28T12:06:41.776Z,72.98
2019-01-28T12:09:13.332Z,72.70
2019-01-28T12:11:44.736Z,73.32
2019-01-28T12:14:16.038Z,72.77
2019-01-28T12:16:47.425Z,71.99
2019-01-28T12:19:18.737Z,73.24
2019-01-28T12:21:50.458Z,73.42
2019-01-28T12:24:21.806Z,73.01
2019-01-28T12:26:53.529Z,72.27
2019-01-28T12:29:25.144Z,72.93
2019-01-28T12:31:57.062Z,73.54
2019-01-28T12:34:28.895Z,72.57
2019-01-28T12:37:00.900Z,72.24
2019-01-28T12:39:33.149Z,72.92
2019-01-28T12:42:05.766Z,73.01
2019-01-28T12:44:37.128Z,73.61
2019-01-28T12:47:08.884Z,72.64
2019-01-28T12:49:40.653Z,72.38
2019-01-28T12:52:12.028Z,72.58
2019-01-28T12:54:43.841Z,72.92
2019-01-28T12:57:15.569Z,73.65
2019-01-28T12:59:46.953Z,74.80
2019-01-28T13:02:18.406Z,74.83
2019-01-28T13:04:49.836Z,75.64
2019-01-28T13:07:21.567Z,75.44
2019-01-28T13:09:53.770Z,75.86
2019-01-28T13:12:25.146Z,76.14
2019-01-28T13:14:56.438Z,76.24
2019-01-28T13:17:28.118Z,76.90
2019-01-28T13:19:59.415Z,77.38
2019-01-28T13:22:31.203Z,77.86
2019-01-28T13:25:02.951Z,77.57
2019-01-28T13:27:34.349Z,77.63
2019-01-28T13:30:08.274Z,77.88
2019-01-28T13:32:39.619Z,78.35
2019-01-28T13:35:12.609Z,78.87
2019-01-28T13:37:44.323Z,78.82
2019-01-28T13:40:16.303Z,78.74
2019-01-28T13:42:48.152Z,79.47
2019-01-28T13:45:21.163Z,79.91
2019-01-28T13:47:53.569Z,79.86
2019-01-28T13:50:25.230Z,79.83
2019-01-28T13:52:56.996Z,80.15
2019-01-28T13:55:28.686Z,80.52
2019-01-28T13:58:00.027Z,80.51
2019-01-28T14:00:32.342Z,80.28
2019-01-28T14:03:21.503Z,80.12
2019-01-28T14:06:13.221Z,80.11
2019-01-28T14:08:55.074Z,80.41
2019-01-28T14:11:32.294Z,80.53
2019-01-28T14:14:27.281Z,80.72
2019-01-28T14:17:14.048Z,80.84
2019-01-28T14:23:25.202Z,80.79
2019-01-28T14:26:25.026Z,80.54
2019-01-28T14:29:06.905Z,81.23
2019-01-28T14:32:08.817Z,80.84
2019-01-28T14:34:58.560Z,80.49
2019-01-28T14:37:42.679Z,80.66
2019-01-28T14:40:30.175Z,80.99
2019-01-28T14:43:27.164Z,80.07
2019-01-28T14:45:59.035Z,80.55
2019-01-28T14:48:49.444Z,80.78
2019-01-28T14:51:29.250Z,80.46
2019-01-28T14:54:12.136Z,80.83
2019-01-28T14:56:52.704Z,80.67
2019-01-28T14:59:43.721Z,80.73
2019-01-28T15:02:14.982Z,80.53
2019-01-28T15:04:46.481Z,80.89
2019-01-28T15:07:17.795Z,80.45
2019-01-28T15:09:49.527Z,80.32
2019-01-28T15:12:21.325Z,81.23
2019-01-28T15:14:52.667Z,82.11
2019-01-28T15:17:24.258Z,81.29
2019-01-28T15:20:02.225Z,81.53
2019-01-28T15:22:28.471Z,81.75
2019-01-28T15:24:59.779Z,81.07
2019-01-28T15:27:32.650Z,81.25
2019-01-28T15:30:04.221Z,81.56
2019-01-28T15:32:35.650Z,81.87
2019-01-28T15:35:07.394Z,81.88
2019-01-28T15:37:38.762Z,81.94
2019-01-28T15:40:13.318Z,82.34
2019-01-28T15:42:45.179Z,82.29
2019-01-28T15:45:20.798Z,82.61
2019-01-28T15:47:52.559Z,82.65
2019-01-28T15:50:24.062Z,83.05
2019-01-28T15:52:55.807Z,83.01
2019-01-28T15:55:31.757Z,82.92
2019-01-28T15:58:03.111Z,83.04
2019-01-28T16:00:35.295Z,83.16
2019-01-28T16:03:08.907Z,83.44
2019-01-28T16:05:40.247Z,83.16
2019-01-28T16:08:12.036Z,83.22
2019-01-28T16:10:43.466Z,83.52
2019-01-28T16:13:15.142Z,83.92
2019-01-28T16:15:49.662Z,83.26
2019-01-28T16:18:21.251Z,83.59
2019-01-28T16:20:52.529Z,83.32
2019-01-28T16:23:24.007Z,83.39
2019-01-28T16:25:55.371Z,83.06
2019-01-28T16:28:26.718Z,82.93
2019-01-28T16:30:58.472Z,82.73
2019-01-28T16:33:29.847Z,83.34
2019-01-28T16:36:01.146Z,83.27
2019-01-28T16:38:32.761Z,83.21
2019-01-28T16:41:06.039Z,83.25
2019-01-28T16:43:37.695Z,83.49
2019-01-28T16:46:09.047Z,83.04
2019-01-28T16:48:40.316Z,83.55
2019-01-28T16:51:11.700Z,83.18
2019-01-28T16:53:43.057Z,83.29
2019-01-28T16:56:14.411Z,83.14
2019-01-28T16:58:45.839Z,83.24
2019-01-28T17:01:17.561Z,83.82
2019-01-28T17:03:48.857Z,83.62
2019-01-28T17:06:20.827Z,84.00
2019-01-28T17:08:52.286Z,83.82
2019-01-28T17:11:23.895Z,83.66
2019-01-28T17:13:55.814Z,83.65
2019-01-28T17:16:27.459Z,83.88
2019-01-28T17:18:58.858Z,83.71
2019-01-28T17:21:30.536Z,83.74
2019-01-28T17:24:01.903Z,83.77
2019-01-28T17:26:33.548Z,83.88
2019-01-28T17:29:04.808Z,83.99
2019-01-28T17:31:36.412Z,84.16
2019-01-28T17:34:07.669Z,84.11
2019-01-28T17:36:39.564Z,83.93
2019-01-28T17:39:11.546Z,84.07
2019-01-28T17:41:42.970Z,83.80
2019-01-28T17:44:15.005Z,84.00
2019-01-28T17:46:46.831Z,83.83
2019-01-28T17:49:18.154Z,84.16
2019-01-28T17:51:50.074Z,83.88
2019-01-28T17:54:21.825Z,84.20
2019-01-28T17:56:53.083Z,84.46
2019-01-28T17:59:24.382Z,84.21
2019-01-28T18:01:56.263Z,84.55
2019-01-28T18:04:27.567Z,84.16
2019-01-28T18:06:58.887Z,84.28
2019-01-28T18:09:30.853Z,84.48
2019-01-28T18:12:02.103Z,84.33
2019-01-28T18:14:33.885Z,84.95
2019-01-28T18:17:05.637Z,84.65
2019-01-28T18:19:36.924Z,84.61
2019-01-28T18:22:08.428Z,84.97
2019-01-28T18:24:40.078Z,84.63
2019-01-28T18:27:11.473Z,85.10
2019-01-28T18:29:42.951Z,85.54
2019-01-28T18:32:14.453Z,85.25
2019-01-28T18:34:45.844Z,84.73
2019-01-28T18:37:17.121Z,85.09
2019-01-28T18:39:48.529Z,84.92
2019-01-28T18:42:19.818Z,85.37
2019-01-28T18:44:51.318Z,85.12
2019-01-28T18:47:23.286Z,85.12
2019-01-28T18:51:43.510Z,85.04
2019-01-28T18:52:35.636Z,85.04
2019-01-28T18:55:08.219Z,85.09
2019-01-28T18:57:39.525Z,85.13
2019-01-28T19:00:19.061Z,85.38
2019-01-28T19:02:50.433Z,85.55
2019-01-28T19:05:40.157Z,85.95
2019-01-28T19:08:27.804Z,85.89
2019-01-28T19:11:09.184Z,85.61
2019-01-28T19:14:02.162Z,85.86
2019-01-28T19:16:51.165Z,85.67
2019-01-28T19:19:38.213Z,85.37
2019-01-28T19:22:09.746Z,85.43
2019-01-28T19:24:42.200Z,84.81
2019-01-28T19:27:13.659Z,84.79
2019-01-28T19:29:45.074Z,84.96
2019-01-28T19:32:16.361Z,84.63
2019-01-28T19:34:47.795Z,85.01
2019-01-28T19:37:19.207Z,84.93
2019-01-28T19:39:50.877Z,84.87
2019-01-28T19:42:22.422Z,84.20
2019-01-28T19:44:54.071Z,84.22
2019-01-28T19:47:25.731Z,84.29
2019-01-28T19:49:57.468Z,84.26
2019-01-28T19:52:28.842Z,84.66
2019-01-28T19:55:01.062Z,83.96
2019-01-28T19:57:32.865Z,83.99
2019-01-28T20:00:04.719Z,83.75
2019-01-28T20:02:36.081Z,83.72
2019-01-28T20:05:09.970Z,83.60
2019-01-28T20:07:41.686Z,83.86
2019-01-28T20:10:13.844Z,83.63
2019-01-28T20:12:45.258Z,83.41
2019-01-28T20:15:18.463Z,83.67
2019-01-28T20:17:49.847Z,83.46
2019-01-28T20:20:21.871Z,83.31
2019-01-28T20:22:53.268Z,83.45
2019-01-28T20:25:24.740Z,83.59
2019-01-28T20:27:56.143Z,83.45
2019-01-28T20:30:28.721Z,83.27
2019-01-28T20:33:00.017Z,83.38
2019-01-28T20:35:32.064Z,83.37
2019-01-28T20:38:03.354Z,83.25
2019-01-28T20:40:34.638Z,83.19
2019-01-28T20:43:06.126Z,83.19
2019-01-28T20:45:44.998Z,83.46
2019-01-28T20:48:11.055Z,83.82
2019-01-28T20:50:42.387Z,83.66
2019-01-28T20:53:14.397Z,83.58
2019-01-28T20:55:46.031Z,83.57
2019-01-28T20:58:18.137Z,83.40
2019-01-28T21:00:49.446Z,83.62
2019-01-28T21:03:20.722Z,83.59
2019-01-28T21:05:52.506Z,83.63
2019-01-28T21:08:23.784Z,83.56
2019-01-28T21:10:55.156Z,83.61
2019-01-28T21:13:26.477Z,83.64
2019-01-28T21:15:57.775Z,83.62
2019-01-28T21:18:29.325Z,83.81
2019-01-28T21:21:00.995Z,83.56
2019-01-28T21:23:32.638Z,83.60
2019-01-28T21:26:03.911Z,83.50
2019-01-28T21:28:35.227Z,83.54
2019-01-28T21:31:06.611Z,83.90
2019-01-28T21:33:39.018Z,83.90
2019-01-28T21:36:33.526Z,83.93
2019-01-28T21:39:08.870Z,83.94
2019-01-28T21:41:40.483Z,83.95
2019-01-28T21:44:12.641Z,83.91
2019-01-28T21:46:45.088Z,83.66
2019-01-28T21:49:16.363Z,83.74
2019-01-28T21:51:50.690Z,83.88
2019-01-28T21:54:25.496Z,83.89
2019-01-28T21:56:58.164Z,83.75
2019-01-28T21:59:30.115Z,83.64
2019-01-28T22:02:01.465Z,83.60
2019-01-28T22:04:32.761Z,83.69
2019-01-28T22:07:04.121Z,83.70
2019-01-28T22:09:35.735Z,83.72
2019-01-28T22:12:07.709Z,83.59
2019-01-28T22:14:39.012Z,83.73
2019-01-28T22:17:10.301Z,83.36
2019-01-28T22:19:42.407Z,83.23
2019-01-28T22:22:14.077Z,83.30
2019-01-28T22:24:45.998Z,83.31
2019-01-28T22:27:17.734Z,83.25
2019-01-28T22:29:49.184Z,82.98
2019-01-28T22:32:20.815Z,82.83
2019-01-28T22:34:52.116Z,82.87
2019-01-28T22:37:24.408Z,82.98
2019-01-28T22:39:55.716Z,82.98
2019-01-28T22:42:27.292Z,82.87
2019-01-28T22:44:58.995Z,82.50
2019-01-28T22:47:30.249Z,82.37
2019-01-28T22:50:01.569Z,82.60
2019-01-28T22:52:33.182Z,82.19
2019-01-28T22:55:05.406Z,82.24
2019-01-28T22:57:36.674Z,82.45
2019-01-28T23:00:50.380Z,82.30
2019-01-28T23:03:25.150Z,82.52
2019-01-28T23:05:56.803Z,82.39
2019-01-28T23:08:28.515Z,82.39
2019-01-28T23:10:59.750Z,82.56
2019-01-28T23:13:30.993Z,82.59
2019-01-28T23:16:02.535Z,82.48
2019-01-28T23:18:34.221Z,82.49
2019-01-28T23:21:14.553Z,82.58
2019-01-28T23:23:49.136Z,82.55
2019-01-28T23:26:20.966Z,82.60
2019-01-28T23:28:52.239Z,82.68
2019-01-28T23:31:23.556Z,82.70
2019-01-28T23:33:55.218Z,82.65
2019-01-28T23:36:26.729Z,82.64
2019-01-28T23:38:58.442Z,82.72
2019-01-28T23:41:30.370Z,82.86
2019-01-28T23:44:01.649Z,82.88
2019-01-28T23:46:33.055Z,82.74
2019-01-28T23:49:04.980Z,82.88
2019-01-28T23:51:36.638Z,82.95
2019-01-28T23:54:08.427Z,82.94
2019-01-28T23:56:39.675Z,83.09
2019-01-28T23:59:11.715Z,82.93
